createdAt,value
2019-05-06T00:02:24.554Z,74.99
2019-05-06T00:04:57.063Z,74.88
2019-05-06T00:07:29.477Z,74.57
2019-05-06T00:10:01.574Z,74.09
2019-05-06T00:12:33.970Z,73.68
2019-05-06T00:15:06.928Z,73.56
2019-05-06T00:17:39.036Z,73.36
2019-05-06T00:20:11.125Z,73.38
2019-05-06T00:22:43.613Z,73.18
2019-05-06T00:25:19.937Z,73.37
2019-05-06T00:28:17.919Z,73.36
2019-05-06T00:30:51.842Z,73.71
2019-05-06T00:33:24.260Z,73.70
2019-05-06T00:35:56.487Z,73.91
2019-05-06T00:38:28.517Z,74.07
2019-05-06T00:41:04.147Z,74.53
2019-05-06T00:43:36.135Z,74.61
2019-05-06T00:46:08.119Z,74.43
2019-05-06T00:48:40.115Z,74.51
2019-05-06T00:51:13.547Z,74.86
2019-05-06T00:53:50.257Z,74.73
2019-05-06T00:56:24.238Z,74.93
2019-05-06T00:58:55.887Z,74.90
2019-05-06T01:01:29.798Z,74.71
2019-05-06T01:04:01.400Z,74.19
2019-05-06T01:06:34.999Z,73.66
2019-05-06T01:09:10.755Z,73.27
2019-05-06T01:11:44.915Z,73.47
2019-05-06T01:14:23.514Z,73.12
2019-05-06T01:16:55.626Z,72.56
2019-05-06T01:19:28.638Z,72.50
2019-05-06T01:22:00.547Z,72.71
2019-05-06T01:24:35.515Z,73.15
2019-05-06T01:27:07.424Z,72.93
2019-05-06T01:29:39.413Z,72.69
2019-05-06T01:32:11.455Z,72.65
2019-05-06T01:34:44.646Z,72.22
2019-05-06T01:37:16.722Z,72.21
2019-05-06T01:40:07.824Z,72.40
2019-05-06T01:43:05.120Z,72.25
2019-05-06T01:45:38.824Z,72.65
2019-05-06T01:48:11.056Z,72.70
2019-05-06T01:50:44.519Z,72.60
2019-05-06T01:53:16.878Z,72.82
2019-05-06T01:55:48.799Z,73.04
2019-05-06T01:58:20.697Z,72.84
2019-05-06T02:00:54.462Z,72.32
2019-05-06T02:03:26.348Z,71.79
2019-05-06T02:05:59.928Z,71.62
2019-05-06T02:08:33.584Z,71.55
2019-05-06T02:11:05.708Z,71.74
2019-05-06T02:13:38.117Z,71.84
2019-05-06T02:16:10.023Z,72.27
2019-05-06T02:18:41.879Z,72.28
2019-05-06T02:21:19.880Z,72.07
2019-05-06T02:23:57.288Z,72.39
2019-05-06T02:26:29.232Z,72.43
2019-05-06T02:29:04.270Z,72.39
2019-05-06T02:31:49.260Z,72.23
2019-05-06T02:34:40.049Z,72.06
2019-05-06T02:37:16.537Z,73.25
2019-05-06T02:39:48.499Z,73.70
2019-05-06T02:42:20.415Z,73.66
2019-05-06T02:44:53.969Z,73.64
2019-05-06T02:47:45.393Z,73.34
2019-05-06T02:50:20.336Z,72.95
2019-05-06T02:52:53.762Z,73.12
2019-05-06T02:55:25.833Z,73.11
2019-05-06T02:57:57.721Z,73.34
2019-05-06T03:00:29.651Z,71.53
2019-05-06T03:03:02.898Z,71.17
2019-05-06T03:05:35.880Z,71.18
2019-05-06T03:08:07.856Z,71.25
2019-05-06T03:10:39.896Z,71.54
2019-05-06T03:13:14.274Z,71.46
2019-05-06T03:15:47.636Z,71.29
2019-05-06T03:18:19.541Z,71.30
2019-05-06T03:21:13.793Z,70.83
2019-05-06T03:23:53.957Z,70.03
2019-05-06T03:26:24.371Z,69.32
2019-05-06T03:28:56.430Z,69.21
2019-05-06T03:31:28.381Z,69.63
2019-05-06T03:34:29.036Z,69.85
2019-05-06T03:36:40.445Z,70.36
2019-05-06T03:39:07.823Z,70.62
2019-05-06T03:41:42.905Z,71.15
2019-05-06T03:44:16.851Z,71.20
2019-05-06T03:47:06.379Z,71.39
2019-05-06T03:49:43.001Z,71.48
2019-05-06T03:52:15.332Z,71.34
2019-05-06T03:54:48.144Z,71.04
2019-05-06T03:57:23.226Z,71.10
2019-05-06T03:59:55.741Z,71.57
2019-05-06T04:02:28.210Z,71.59
2019-05-06T04:05:00.144Z,71.41
2019-05-06T04:07:34.609Z,71.54
2019-05-06T04:10:07.351Z,71.51
2019-05-06T04:12:39.567Z,71.20
2019-05-06T04:15:14.201Z,71.09
2019-05-06T04:17:53.973Z,70.88
2019-05-06T04:20:43.872Z,70.99
2019-05-06T04:23:46.072Z,71.08
2019-05-06T04:26:28.410Z,71.64
2019-05-06T04:29:00.290Z,71.77
2019-05-06T04:31:33.549Z,71.42
2019-05-06T04:34:14.106Z,71.33
2019-05-06T04:36:39.741Z,71.11
2019-05-06T04:39:13.109Z,70.94
2019-05-06T04:41:45.662Z,70.98
2019-05-06T04:44:18.992Z,71.26
2019-05-06T04:46:54.399Z,71.33
2019-05-06T04:49:26.228Z,70.93
2019-05-06T04:51:58.612Z,70.68
2019-05-06T04:54:33.688Z,70.73
2019-05-06T04:57:05.261Z,71.07
2019-05-06T04:59:37.282Z,70.73
2019-05-06T05:02:09.550Z,70.88
2019-05-06T05:04:43.330Z,70.90
2019-05-06T05:07:15.588Z,70.71
2019-05-06T05:09:48.301Z,71.17
2019-05-06T05:12:27.031Z,71.42
2019-05-06T05:15:25.140Z,71.34
2019-05-06T05:21:32.486Z,71.39
2019-05-06T05:24:05.003Z,71.35
2019-05-06T05:26:37.884Z,72.04
2019-05-06T05:29:12.201Z,72.37
2019-05-06T05:31:43.783Z,72.27
2019-05-06T05:34:16.176Z,71.90
2019-05-06T05:36:48.493Z,71.72
2019-05-06T05:39:22.249Z,71.86
2019-05-06T05:41:55.685Z,71.73
2019-05-06T05:44:32.385Z,71.94
2019-05-06T05:47:05.606Z,72.17
2019-05-06T05:50:03.844Z,71.84
2019-05-06T05:52:35.840Z,71.82
2019-05-06T05:55:12.159Z,71.71
2019-05-06T05:57:44.648Z,71.76
2019-05-06T06:00:17.544Z,72.19
2019-05-06T06:02:52.857Z,72.34
2019-05-06T06:05:23.419Z,72.13
2019-05-06T06:07:55.450Z,72.02
2019-05-06T06:10:48.709Z,71.38
2019-05-06T06:13:32.034Z,70.75
2019-05-06T06:19:42.483Z,70.34
2019-05-06T06:22:23.426Z,70.00
2019-05-06T06:25:04.082Z,70.05
2019-05-06T06:28:12.070Z,71.39
2019-05-06T06:30:54.576Z,72.66
2019-05-06T06:33:26.737Z,72.74
2019-05-06T06:36:23.083Z,72.78
2019-05-06T06:38:58.911Z,72.64
2019-05-06T06:41:32.324Z,71.92
2019-05-06T06:44:07.922Z,71.66
2019-05-06T06:46:39.921Z,71.77
2019-05-06T06:49:14.098Z,71.83
2019-05-06T06:51:46.219Z,72.07
2019-05-06T06:54:18.253Z,71.84
2019-05-06T06:57:08.798Z,71.69
2019-05-06T06:59:59.072Z,71.07
2019-05-06T07:02:56.196Z,70.10
2019-05-06T07:05:37.796Z,69.34
2019-05-06T07:08:09.883Z,68.70
2019-05-06T07:10:44.740Z,67.73
2019-05-06T07:13:20.107Z,67.33
2019-05-06T07:15:52.173Z,67.00
2019-05-06T07:18:24.445Z,67.00
2019-05-06T07:21:22.464Z,66.16
2019-05-06T07:23:54.698Z,65.28
2019-05-06T07:26:31.792Z,64.65
2019-05-06T07:29:15.325Z,64.08
2019-05-06T07:31:39.265Z,64.09
2019-05-06T07:34:12.064Z,63.81
2019-05-06T07:36:44.006Z,63.48
2019-05-06T07:39:15.989Z,62.58
2019-05-06T07:41:53.454Z,62.58
2019-05-06T07:44:43.585Z,61.71
2019-05-06T07:47:29.098Z,61.10
2019-05-06T07:50:02.383Z,60.37
2019-05-06T07:52:34.781Z,60.29
2019-05-06T07:55:07.086Z,59.79
2019-05-06T07:57:39.091Z,59.00
2019-05-06T08:00:12.564Z,57.93
2019-05-06T08:02:46.349Z,56.63
2019-05-06T08:05:18.231Z,57.07
2019-05-06T08:07:55.070Z,57.50
2019-05-06T08:10:25.267Z,57.47
2019-05-06T08:12:58.308Z,56.77
2019-05-06T08:15:32.301Z,55.93
2019-05-06T08:18:03.939Z,55.77
2019-05-06T08:20:37.025Z,56.23
2019-05-06T08:23:22.112Z,56.36
2019-05-06T08:26:08.319Z,56.96
2019-05-06T08:28:38.626Z,56.95
2019-05-06T08:31:06.844Z,56.62
2019-05-06T08:33:38.798Z,56.30
2019-05-06T08:36:15.093Z,56.75
2019-05-06T08:38:56.487Z,56.53
2019-05-06T08:41:29.034Z,56.48
2019-05-06T08:44:02.708Z,55.50
2019-05-06T08:46:35.885Z,55.69
2019-05-06T08:49:07.820Z,54.78
2019-05-06T08:51:48.546Z,54.17
2019-05-06T08:54:35.709Z,54.16
2019-05-06T08:57:07.713Z,52.43
2019-05-06T08:59:42.317Z,52.68
2019-05-06T09:02:13.848Z,51.53
2019-05-06T09:04:45.984Z,52.12
2019-05-06T09:07:18.077Z,51.56
2019-05-06T09:09:50.156Z,51.87
2019-05-06T09:12:22.447Z,51.90
2019-05-06T09:14:56.274Z,51.17
2019-05-06T09:17:28.665Z,49.57
2019-05-06T09:20:02.738Z,48.82
2019-05-06T09:22:34.546Z,47.77
2019-05-06T09:25:07.446Z,46.88
2019-05-06T09:28:12.996Z,45.19
2019-05-06T09:30:48.111Z,44.45
2019-05-06T09:33:24.809Z,43.95
2019-05-06T09:35:56.934Z,44.31
2019-05-06T09:38:28.993Z,44.72
2019-05-06T09:41:05.014Z,45.34
2019-05-06T09:43:36.620Z,47.82
2019-05-06T09:46:08.522Z,48.86
2019-05-06T09:48:58.242Z,48.85
2019-05-06T09:51:32.584Z,49.09
2019-05-06T09:54:13.044Z,47.68
2019-05-06T09:56:49.716Z,45.93
2019-05-06T09:59:22.854Z,44.81
2019-05-06T10:01:54.959Z,44.60
2019-05-06T10:04:27.903Z,44.22
2019-05-06T10:07:00.208Z,41.56
2019-05-06T10:09:33.725Z,39.92
2019-05-06T10:12:06.067Z,38.53
2019-05-06T10:14:38.576Z,37.70
2019-05-06T10:17:13.248Z,38.34
2019-05-06T10:19:45.312Z,38.12
2019-05-06T10:22:17.407Z,37.60
2019-05-06T10:24:49.289Z,38.55
2019-05-06T10:27:22.738Z,38.47
2019-05-06T10:30:03.268Z,39.29
2019-05-06T10:32:43.561Z,39.37
2019-05-06T10:35:16.051Z,39.01
2019-05-06T10:38:15.203Z,38.16
2019-05-06T10:41:01.003Z,37.29
2019-05-06T10:44:03.043Z,38.39
2019-05-06T10:46:34.829Z,37.86
2019-05-06T10:49:07.594Z,38.08
2019-05-06T10:51:54.545Z,37.61
2019-05-06T10:54:26.518Z,38.68
2019-05-06T10:57:13.836Z,39.66
2019-05-06T10:59:47.674Z,39.80
2019-05-06T11:02:38.741Z,39.99
2019-05-06T11:05:10.899Z,38.38
2019-05-06T11:07:43.390Z,38.64
2019-05-06T11:10:25.011Z,38.51
2019-05-06T11:12:52.317Z,37.92
2019-05-06T11:15:24.610Z,36.70
2019-05-06T11:17:56.589Z,35.75
2019-05-06T11:20:28.587Z,34.20
2019-05-06T11:23:03.317Z,36.62
2019-05-06T11:25:37.725Z,33.22
2019-05-06T11:28:26.668Z,28.86
2019-05-06T11:31:30.192Z,27.74
2019-05-06T11:34:28.353Z,24.94
2019-05-06T11:37:45.938Z,26.31
2019-05-06T11:40:09.422Z,27.99
2019-05-06T11:42:43.655Z,32.43
2019-05-06T11:45:15.403Z,31.50
2019-05-06T11:47:48.510Z,32.40
2019-05-06T11:50:21.971Z,33.11
2019-05-06T11:52:55.925Z,35.04
2019-05-06T11:55:32.734Z,34.77
2019-05-06T11:58:03.391Z,35.02
2019-05-06T12:00:39.422Z,36.57
2019-05-06T12:03:12.772Z,37.64
2019-05-06T12:05:44.958Z,38.71
2019-05-06T12:08:22.071Z,37.19
2019-05-06T12:10:53.428Z,38.19
2019-05-06T12:13:26.994Z,38.38
2019-05-06T12:15:59.276Z,39.00
2019-05-06T12:18:31.211Z,38.97
2019-05-06T12:21:11.117Z,38.64
2019-05-06T12:23:37.141Z,40.06
2019-05-06T12:26:09.022Z,41.95
2019-05-06T12:28:43.541Z,42.79
2019-05-06T12:31:15.846Z,41.22
2019-05-06T12:33:53.288Z,40.48
2019-05-06T12:36:25.024Z,41.78
2019-05-06T12:39:17.100Z,40.15
2019-05-06T12:42:15.806Z,39.94
2019-05-06T12:45:05.147Z,39.55
2019-05-06T12:47:45.449Z,39.35
2019-05-06T12:50:22.653Z,42.24
2019-05-06T12:52:57.564Z,43.03
2019-05-06T12:55:28.100Z,41.90
2019-05-06T12:58:02.787Z,41.44
2019-05-06T13:00:34.851Z,42.76
2019-05-06T13:03:09.526Z,42.12
2019-05-06T13:05:42.800Z,41.43
2019-05-06T13:08:20.142Z,42.89
2019-05-06T13:10:52.594Z,42.43
2019-05-06T13:13:25.011Z,43.28
2019-05-06T13:15:57.799Z,42.70
2019-05-06T13:18:29.688Z,43.48
2019-05-06T13:21:06.437Z,43.35
2019-05-06T13:23:46.387Z,43.79
2019-05-06T13:26:18.272Z,43.01
2019-05-06T13:28:54.698Z,43.50
2019-05-06T13:31:26.601Z,42.49
2019-05-06T13:34:05.288Z,42.52
2019-05-06T13:36:37.359Z,40.80
2019-05-06T13:39:14.365Z,41.37
2019-05-06T13:41:45.269Z,42.79
2019-05-06T13:44:18.629Z,42.08
2019-05-06T13:46:54.171Z,42.33
2019-05-06T13:49:48.255Z,41.52
2019-05-06T13:52:25.265Z,42.39
2019-05-06T13:54:57.298Z,41.07
2019-05-06T13:57:29.396Z,41.11
2019-05-06T14:00:03.254Z,40.37
2019-05-06T14:02:45.884Z,40.52
2019-05-06T14:05:18.557Z,40.22
2019-05-06T14:07:52.774Z,39.47
2019-05-06T14:10:24.201Z,39.90
2019-05-06T14:12:56.603Z,39.74
2019-05-06T14:15:28.633Z,41.42
2019-05-06T14:18:02.653Z,40.26
2019-05-06T14:20:34.201Z,41.55
2019-05-06T14:23:06.093Z,40.74
2019-05-06T14:25:55.633Z,39.17
2019-05-06T14:28:48.375Z,38.81
2019-05-06T14:31:27.050Z,38.89
2019-05-06T14:34:01.674Z,40.09
2019-05-06T14:36:33.708Z,41.02
2019-05-06T14:39:08.730Z,39.49
2019-05-06T14:41:44.514Z,40.46
2019-05-06T14:44:16.637Z,40.58
2019-05-06T14:47:19.781Z,41.49
2019-05-06T14:49:52.946Z,40.40
2019-05-06T14:52:25.434Z,40.70
2019-05-06T14:55:07.365Z,39.79
2019-05-06T14:57:42.692Z,38.61
2019-05-06T15:00:16.655Z,40.09
2019-05-06T15:02:48.625Z,39.29
2019-05-06T15:05:22.640Z,39.81
2019-05-06T15:07:54.327Z,39.94
2019-05-06T15:10:26.632Z,41.13
2019-05-06T15:12:58.556Z,42.12
2019-05-06T15:15:32.416Z,41.90
2019-05-06T15:18:06.470Z,42.18
2019-05-06T15:20:42.496Z,43.77
2019-05-06T15:23:15.026Z,43.18
2019-05-06T15:25:46.995Z,43.12
2019-05-06T15:28:18.875Z,43.40
2019-05-06T15:31:03.299Z,43.29
2019-05-06T15:33:40.548Z,43.72
2019-05-06T15:36:27.347Z,43.88
2019-05-06T15:38:59.332Z,43.01
2019-05-06T15:41:32.307Z,44.05
2019-05-06T15:44:05.510Z,44.19
2019-05-06T15:46:39.496Z,44.29
2019-05-06T15:49:15.555Z,45.38
2019-05-06T15:51:49.393Z,44.88
2019-05-06T15:54:22.662Z,44.94
2019-05-06T15:56:56.668Z,44.71
2019-05-06T15:59:28.612Z,44.75
2019-05-06T16:02:01.900Z,45.40
2019-05-06T16:04:35.711Z,44.75
2019-05-06T16:07:07.762Z,44.59
2019-05-06T16:09:39.775Z,45.14
2019-05-06T16:12:17.041Z,45.64
2019-05-06T16:14:48.935Z,45.14
2019-05-06T16:17:23.579Z,44.83
2019-05-06T16:19:55.884Z,43.51
2019-05-06T16:22:27.746Z,44.17
2019-05-06T16:25:06.144Z,44.40
2019-05-06T16:27:43.814Z,44.38
2019-05-06T16:30:16.395Z,44.87
2019-05-06T16:32:48.321Z,44.97
2019-05-06T16:35:22.455Z,45.09
2019-05-06T16:37:54.050Z,45.14
2019-05-06T16:40:26.129Z,44.81
2019-05-06T16:42:58.024Z,44.94
2019-05-06T16:45:30.271Z,44.93
2019-05-06T16:48:03.622Z,45.78
2019-05-06T16:50:39.577Z,45.96
2019-05-06T16:53:12.193Z,46.16
2019-05-06T16:55:59.009Z,46.64
2019-05-06T16:58:36.358Z,46.50
2019-05-06T17:01:14.890Z,46.68
2019-05-06T17:04:14.592Z,46.18
2019-05-06T17:06:47.357Z,46.66
2019-05-06T17:09:26.929Z,45.65
2019-05-06T17:11:59.445Z,45.92
2019-05-06T17:14:34.376Z,45.45
2019-05-06T17:17:07.271Z,45.47
2019-05-06T17:19:43.467Z,45.31
2019-05-06T17:22:15.373Z,45.41
2019-05-06T17:24:48.638Z,46.03
2019-05-06T17:27:23.559Z,46.63
2019-05-06T17:30:17.515Z,47.04
2019-05-06T17:32:52.642Z,46.63
2019-05-06T17:35:25.345Z,47.37
2019-05-06T17:38:13.117Z,48.12
2019-05-06T17:40:46.318Z,48.61
2019-05-06T17:43:22.523Z,48.84
2019-05-06T17:46:02.868Z,49.45
2019-05-06T17:48:46.035Z,49.52
2019-05-06T17:51:36.984Z,49.75
2019-05-06T17:54:12.320Z,49.85
2019-05-06T17:56:44.602Z,50.32
2019-05-06T17:59:16.511Z,50.04
2019-05-06T18:01:53.042Z,49.43
2019-05-06T18:04:24.365Z,48.73
2019-05-06T18:06:56.948Z,48.87
2019-05-06T18:09:29.355Z,48.98
2019-05-06T18:12:03.152Z,48.89
2019-05-06T18:14:35.191Z,50.01
2019-05-06T18:17:07.326Z,50.49
2019-05-06T18:19:39.294Z,51.48
2019-05-06T18:22:13.114Z,51.65
2019-05-06T18:24:48.062Z,51.63
2019-05-06T18:27:22.611Z,52.70
2019-05-06T18:29:55.109Z,52.20
2019-05-06T18:32:27.082Z,52.98
2019-05-06T18:34:59.159Z,53.15
2019-05-06T18:37:33.168Z,52.95
2019-05-06T18:40:06.979Z,53.44
2019-05-06T18:42:42.987Z,54.28
2019-05-06T18:45:14.780Z,55.26
2019-05-06T18:47:46.799Z,55.81
2019-05-06T18:50:18.777Z,55.21
2019-05-06T18:52:52.835Z,55.84
2019-05-06T18:55:25.991Z,55.92
2019-05-06T18:58:02.080Z,57.65
2019-05-06T19:00:34.852Z,58.41
2019-05-06T19:03:06.848Z,58.15
2019-05-06T19:05:39.672Z,58.52
2019-05-06T19:08:36.698Z,58.76
2019-05-06T19:11:11.961Z,59.33
2019-05-06T19:13:44.022Z,59.38
2019-05-06T19:16:16.396Z,59.45
2019-05-06T19:18:52.167Z,60.38
2019-05-06T19:21:24.499Z,60.55
2019-05-06T19:23:57.549Z,61.10
2019-05-06T19:26:29.472Z,61.49
2019-05-06T19:29:04.618Z,61.64
2019-05-06T19:31:36.759Z,62.07
2019-05-06T19:34:09.523Z,62.65
2019-05-06T19:36:42.198Z,63.45
2019-05-06T19:39:16.729Z,64.11
2019-05-06T19:41:48.621Z,64.22
2019-05-06T19:44:22.052Z,64.82
2019-05-06T19:46:54.351Z,64.60
2019-05-06T19:49:26.716Z,64.78
2019-05-06T19:52:00.041Z,64.92
2019-05-06T19:54:34.334Z,65.17
2019-05-06T19:57:06.469Z,66.02
2019-05-06T19:59:42.369Z,66.08
2019-05-06T20:02:14.186Z,66.07
2019-05-06T20:04:48.510Z,66.02
2019-05-06T20:07:48.611Z,65.89
2019-05-06T20:10:42.376Z,65.99
2019-05-06T20:13:15.845Z,65.86
2019-05-06T20:15:47.764Z,65.43
2019-05-06T20:18:19.753Z,65.39
2019-05-06T20:20:52.791Z,65.53
2019-05-06T20:23:25.415Z,65.39
2019-05-06T20:25:59.879Z,65.24
2019-05-06T20:28:33.586Z,65.20
2019-05-06T20:31:07.326Z,65.59
2019-05-06T20:33:42.148Z,65.48
2019-05-06T20:36:13.906Z,65.49
2019-05-06T20:38:50.246Z,65.26
2019-05-06T20:41:25.770Z,64.54
2019-05-06T20:43:57.731Z,64.26
2019-05-06T20:46:29.666Z,64.34
2019-05-06T20:49:02.581Z,64.58
2019-05-06T20:51:36.140Z,64.98
2019-05-06T20:54:08.160Z,65.43
2019-05-06T20:56:44.777Z,65.22
2019-05-06T20:59:16.662Z,65.33
2019-05-06T21:01:48.626Z,65.43
2019-05-06T21:04:22.673Z,65.40
2019-05-06T21:06:55.448Z,65.63
2019-05-06T21:09:27.479Z,65.67
2019-05-06T21:11:59.454Z,66.06
2019-05-06T21:14:32.389Z,66.16
2019-05-06T21:17:06.158Z,66.72
2019-05-06T21:19:39.965Z,66.55
2019-05-06T21:22:13.278Z,66.40
2019-05-06T21:24:48.206Z,66.80
2019-05-06T21:27:22.991Z,66.55
2019-05-06T21:29:55.515Z,66.72
2019-05-06T21:32:32.977Z,66.86
2019-05-06T21:35:07.878Z,67.02
2019-05-06T21:37:42.080Z,66.88
2019-05-06T21:40:15.791Z,67.05
2019-05-06T21:42:47.717Z,67.39
2019-05-06T21:45:22.912Z,67.24
2019-05-06T21:47:55.342Z,67.29
2019-05-06T21:50:27.441Z,67.04
2019-05-06T21:53:02.735Z,66.77
2019-05-06T21:55:37.210Z,67.04
2019-05-06T21:58:09.423Z,67.18
2019-05-06T22:01:02.352Z,67.03
2019-05-06T22:03:45.458Z,67.10
2019-05-06T22:06:17.522Z,67.15
2019-05-06T22:08:52.067Z,67.08
2019-05-06T22:11:24.545Z,67.09
2019-05-06T22:14:01.152Z,67.54
2019-05-06T22:16:32.320Z,68.09
2019-05-06T22:19:08.477Z,68.21
2019-05-06T22:22:03.495Z,68.01
2019-05-06T22:24:43.752Z,68.00
2019-05-06T22:27:16.537Z,68.29
2019-05-06T22:29:48.856Z,68.15
2019-05-06T22:32:22.940Z,68.14
2019-05-06T22:34:54.787Z,68.65
2019-05-06T22:37:26.780Z,69.15
2019-05-06T22:40:02.217Z,69.06
2019-05-06T22:42:35.490Z,68.54
2019-05-06T22:45:07.962Z,68.87
2019-05-06T22:47:41.956Z,69.41
2019-05-06T22:50:14.153Z,69.62
2019-05-06T22:52:52.873Z,69.44
2019-05-06T22:55:25.534Z,69.31
2019-05-06T22:57:58.851Z,69.17
2019-05-06T23:00:33.524Z,69.64
2019-05-06T23:03:09.606Z,69.81
2019-05-06T23:05:42.332Z,69.74
2019-05-06T23:08:20.209Z,69.94
2019-05-06T23:10:52.912Z,70.06
2019-05-06T23:13:27.260Z,70.52
2019-05-06T23:15:59.402Z,70.51
2019-05-06T23:18:34.251Z,70.47
2019-05-06T23:21:06.305Z,70.68
2019-05-06T23:23:48.308Z,70.56
2019-05-06T23:26:22.858Z,70.60
2019-05-06T23:28:56.665Z,70.99
2019-05-06T23:31:28.538Z,71.32
2019-05-06T23:34:04.958Z,71.56
2019-05-06T23:37:23.120Z,71.58
2019-05-06T23:40:42.512Z,71.59
2019-05-06T23:43:50.240Z,71.61
2019-05-06T23:46:57.754Z,71.69
2019-05-06T23:50:06.302Z,71.92
2019-05-06T23:53:13.455Z,71.61
2019-05-06T23:56:20.890Z,71.74
2019-05-06T23:58:52.824Z,72.03
